Oak Grove, Texas
Current Conditions -  °F | °C
As of 7:55 PM on Friday 21 Nov 2014 (Local Time) from KJDD Reporting Station
Overcast Overcast  
Wind Chill: 63°   Ceiling: 2300
Heat Index: 63°   Visibility: 10mi
Dew Point: 57°   Wind: 9mph
Humidity: 82%   Direction: 160°SSE
Pressure: 30.15"   Gusts: NA
Location:  32.7982°N, 95.4046°W
Report Text: KJDD 220155Z AUTO 16008KT 10SM BKN023 OVC030 17/14 A3015 RMK AO2 P0001
Loading
Personal Weather Stations






























Interactive Weather Map New forecast layout! Learn more

10-Day Weather Forecast

Advertisements
Track Severe Weather on mobile